sensor_id;sensor_type;location;lat;lon;timestamp;P1;durP1;ratioP1;P2;durP2;ratioP2
76640;SDS011;65538;50.798;6.064;2022-12-18T00:00:20;40.83;;;17.52;;
76640;SDS011;65538;50.798;6.064;2022-12-18T00:02:45;43.17;;;16.90;;
76640;SDS011;65538;50.798;6.064;2022-12-18T00:05:10;40.57;;;17.77;;
76640;SDS011;65538;50.798;6.064;2022-12-18T00:07:36;42.00;;;16.70;;
76640;SDS011;65538;50.798;6.064;2022-12-18T00:10:01;41.38;;;16.42;;
76640;SDS011;65538;50.798;6.064;2022-12-18T00:12:27;41.05;;;17.80;;
76640;SDS011;65538;50.798;6.064;2022-12-18T00:14:52;47.33;;;20.10;;
76640;SDS011;65538;50.798;6.064;2022-12-18T00:17:17;49.47;;;18.57;;
76640;SDS011;65538;50.798;6.064;2022-12-18T00:19:42;42.67;;;17.70;;
76640;SDS011;65538;50.798;6.064;2022-12-18T00:22:07;48.07;;;18.83;;
76640;SDS011;65538;50.798;6.064;2022-12-18T00:24:33;41.07;;;16.50;;
76640;SDS011;65538;50.798;6.064;2022-12-18T00:26:58;38.77;;;16.53;;
76640;SDS011;65538;50.798;6.064;2022-12-18T00:29:23;44.70;;;16.87;;
76640;SDS011;65538;50.798;6.064;2022-12-18T00:31:48;40.20;;;15.90;;
76640;SDS011;65538;50.798;6.064;2022-12-18T00:34:14;42.97;;;16.57;;
76640;SDS011;65538;50.798;6.064;2022-12-18T00:36:39;40.33;;;14.87;;
76640;SDS011;65538;50.798;6.064;2022-12-18T00:39:05;38.22;;;15.40;;
76640;SDS011;65538;50.798;6.064;2022-12-18T00:41:30;45.57;;;17.07;;
76640;SDS011;65538;50.798;6.064;2022-12-18T00:44:14;44.15;;;16.55;;
76640;SDS011;65538;50.798;6.064;2022-12-18T00:46:40;42.80;;;16.08;;
76640;SDS011;65538;50.798;6.064;2022-12-18T00:49:06;47.33;;;17.38;;
76640;SDS011;65538;50.798;6.064;2022-12-18T00:51:32;33.10;;;14.05;;
76640;SDS011;65538;50.798;6.064;2022-12-18T00:53:57;45.53;;;17.30;;
76640;SDS011;65538;50.798;6.064;2022-12-18T00:56:22;43.45;;;15.68;;
76640;SDS011;65538;50.798;6.064;2022-12-18T00:58:48;42.00;;;15.45;;
76640;SDS011;65538;50.798;6.064;2022-12-18T01:01:13;44.05;;;16.00;;
76640;SDS011;65538;50.798;6.064;2022-12-18T01:03:40;38.70;;;15.32;;
76640;SDS011;65538;50.798;6.064;2022-12-18T01:06:09;35.17;;;13.32;;
76640;SDS011;65538;50.798;6.064;2022-12-18T01:08:35;39.10;;;16.10;;
76640;SDS011;65538;50.798;6.064;2022-12-18T01:11:01;40.22;;;15.18;;
76640;SDS011;65538;50.798;6.064;2022-12-18T01:13:26;46.33;;;16.20;;
76640;SDS011;65538;50.798;6.064;2022-12-18T01:15:52;35.58;;;13.40;;
76640;SDS011;65538;50.798;6.064;2022-12-18T01:18:17;34.13;;;13.63;;
76640;SDS011;65538;50.798;6.064;2022-12-18T01:20:45;43.20;;;15.47;;
76640;SDS011;65538;50.798;6.064;2022-12-18T01:23:10;41.80;;;17.15;;
76640;SDS011;65538;50.798;6.064;2022-12-18T01:25:35;39.50;;;17.00;;
76640;SDS011;65538;50.798;6.064;2022-12-18T01:28:01;34.80;;;15.45;;
76640;SDS011;65538;50.798;6.064;2022-12-18T01:30:26;40.85;;;16.02;;
76640;SDS011;65538;50.798;6.064;2022-12-18T01:32:51;41.53;;;15.00;;
76640;SDS011;65538;50.798;6.064;2022-12-18T01:35:17;42.60;;;17.57;;
76640;SDS011;65538;50.798;6.064;2022-12-18T01:37:42;44.67;;;17.70;;
76640;SDS011;65538;50.798;6.064;2022-12-18T01:40:17;46.57;;;17.17;;
76640;SDS011;65538;50.798;6.064;2022-12-18T01:42:42;40.83;;;13.88;;
76640;SDS011;65538;50.798;6.064;2022-12-18T01:47:46;39.60;;;14.23;;
76640;SDS011;65538;50.798;6.064;2022-12-18T01:50:13;47.53;;;16.40;;
76640;SDS011;65538;50.798;6.064;2022-12-18T01:52:40;36.58;;;14.90;;
76640;SDS011;65538;50.798;6.064;2022-12-18T01:55:06;33.85;;;14.55;;
76640;SDS011;65538;50.798;6.064;2022-12-18T01:57:32;34.05;;;15.00;;
76640;SDS011;65538;50.798;6.064;2022-12-18T01:59:59;33.58;;;13.57;;
76640;SDS011;65538;50.798;6.064;2022-12-18T02:02:26;28.52;;;12.82;;
76640;SDS011;65538;50.798;6.064;2022-12-18T02:04:52;31.42;;;14.30;;
76640;SDS011;65538;50.798;6.064;2022-12-18T02:09:50;28.55;;;11.68;;
76640;SDS011;65538;50.798;6.064;2022-12-18T02:12:23;37.90;;;14.32;;
76640;SDS011;65538;50.798;6.064;2022-12-18T02:14:53;35.65;;;13.07;;
76640;SDS011;65538;50.798;6.064;2022-12-18T02:17:21;34.15;;;12.57;;
76640;SDS011;65538;50.798;6.064;2022-12-18T02:19:51;36.22;;;13.75;;
76640;SDS011;65538;50.798;6.064;2022-12-18T02:27:33;27.05;;;11.57;;
76640;SDS011;65538;50.798;6.064;2022-12-18T02:30:00;32.22;;;14.75;;
76640;SDS011;65538;50.798;6.064;2022-12-18T02:32:33;40.70;;;14.57;;
76640;SDS011;65538;50.798;6.064;2022-12-18T02:34:59;32.30;;;12.95;;
76640;SDS011;65538;50.798;6.064;2022-12-18T02:37:26;33.28;;;13.95;;
76640;SDS011;65538;50.798;6.064;2022-12-18T02:39:53;33.13;;;12.30;;
76640;SDS011;65538;50.798;6.064;2022-12-18T02:42:19;38.25;;;13.07;;
76640;SDS011;65538;50.798;6.064;2022-12-18T02:44:49;31.67;;;12.07;;
76640;SDS011;65538;50.798;6.064;2022-12-18T02:47:18;33.10;;;12.90;;
76640;SDS011;65538;50.798;6.064;2022-12-18T02:49:55;31.67;;;11.30;;
76640;SDS011;65538;50.798;6.064;2022-12-18T02:52:31;26.13;;;10.20;;
76640;SDS011;65538;50.798;6.064;2022-12-18T02:57:34;27.05;;;10.52;;
76640;SDS011;65538;50.798;6.064;2022-12-18T03:02:33;28.13;;;11.60;;
76640;SDS011;65538;50.798;6.064;2022-12-18T03:07:44;23.33;;;10.27;;
76640;SDS011;65538;50.798;6.064;2022-12-18T03:10:12;27.85;;;11.27;;
76640;SDS011;65538;50.798;6.064;2022-12-18T03:12:40;24.85;;;10.68;;
76640;SDS011;65538;50.798;6.064;2022-12-18T03:15:10;28.63;;;12.73;;
76640;SDS011;65538;50.798;6.064;2022-12-18T03:17:38;33.67;;;12.70;;
76640;SDS011;65538;50.798;6.064;2022-12-18T03:20:10;25.65;;;9.25;;
76640;SDS011;65538;50.798;6.064;2022-12-18T03:22:37;34.97;;;13.45;;
76640;SDS011;65538;50.798;6.064;2022-12-18T03:25:04;33.05;;;11.88;;
76640;SDS011;65538;50.798;6.064;2022-12-18T03:27:30;28.48;;;11.60;;
76640;SDS011;65538;50.798;6.064;2022-12-18T03:30:03;34.72;;;13.20;;
76640;SDS011;65538;50.798;6.064;2022-12-18T03:32:33;29.85;;;12.10;;
76640;SDS011;65538;50.798;6.064;2022-12-18T03:35:03;27.80;;;10.75;;
76640;SDS011;65538;50.798;6.064;2022-12-18T03:37:29;21.98;;;10.82;;
76640;SDS011;65538;50.798;6.064;2022-12-18T03:39:56;31.40;;;12.88;;
76640;SDS011;65538;50.798;6.064;2022-12-18T03:42:24;37.23;;;13.17;;
76640;SDS011;65538;50.798;6.064;2022-12-18T03:47:30;31.50;;;12.77;;
76640;SDS011;65538;50.798;6.064;2022-12-18T03:50:18;28.95;;;11.32;;
76640;SDS011;65538;50.798;6.064;2022-12-18T03:52:49;26.15;;;12.02;;
76640;SDS011;65538;50.798;6.064;2022-12-18T03:55:17;32.92;;;12.63;;
76640;SDS011;65538;50.798;6.064;2022-12-18T03:57:42;30.90;;;12.25;;
76640;SDS011;65538;50.798;6.064;2022-12-18T04:00:10;28.40;;;12.20;;
76640;SDS011;65538;50.798;6.064;2022-12-18T04:02:36;25.10;;;11.77;;
76640;SDS011;65538;50.798;6.064;2022-12-18T04:05:03;28.27;;;10.27;;
76640;SDS011;65538;50.798;6.064;2022-12-18T04:07:29;24.83;;;10.32;;
76640;SDS011;65538;50.798;6.064;2022-12-18T04:09:55;27.17;;;11.07;;
76640;SDS011;65538;50.798;6.064;2022-12-18T04:12:24;25.83;;;11.38;;
76640;SDS011;65538;50.798;6.064;2022-12-18T04:14:49;28.88;;;11.57;;
76640;SDS011;65538;50.798;6.064;2022-12-18T04:17:14;25.60;;;10.03;;
76640;SDS011;65538;50.798;6.064;2022-12-18T04:19:39;33.70;;;13.00;;
76640;SDS011;65538;50.798;6.064;2022-12-18T04:22:05;29.77;;;10.87;;
76640;SDS011;65538;50.798;6.064;2022-12-18T04:24:30;28.17;;;10.47;;
76640;SDS011;65538;50.798;6.064;2022-12-18T04:26:55;22.97;;;9.20;;
76640;SDS011;65538;50.798;6.064;2022-12-18T04:29:20;21.20;;;9.67;;
76640;SDS011;65538;50.798;6.064;2022-12-18T04:31:46;27.93;;;9.73;;
76640;SDS011;65538;50.798;6.064;2022-12-18T04:34:11;22.33;;;8.20;;
76640;SDS011;65538;50.798;6.064;2022-12-18T04:36:36;22.57;;;8.10;;
76640;SDS011;65538;50.798;6.064;2022-12-18T04:39:01;26.47;;;10.90;;
76640;SDS011;65538;50.798;6.064;2022-12-18T04:41:27;27.10;;;11.93;;
76640;SDS011;65538;50.798;6.064;2022-12-18T04:43:52;25.23;;;10.10;;
76640;SDS011;65538;50.798;6.064;2022-12-18T04:46:17;28.07;;;11.40;;
76640;SDS011;65538;50.798;6.064;2022-12-18T04:48:44;24.50;;;9.30;;
76640;SDS011;65538;50.798;6.064;2022-12-18T04:51:10;21.55;;;8.15;;
76640;SDS011;65538;50.798;6.064;2022-12-18T04:53:51;26.33;;;10.40;;
76640;SDS011;65538;50.798;6.064;2022-12-18T04:56:17;23.02;;;9.38;;
76640;SDS011;65538;50.798;6.064;2022-12-18T04:58:43;21.23;;;8.98;;
76640;SDS011;65538;50.798;6.064;2022-12-18T05:01:09;27.85;;;10.10;;
76640;SDS011;65538;50.798;6.064;2022-12-18T05:03:35;21.10;;;8.40;;
76640;SDS011;65538;50.798;6.064;2022-12-18T05:06:02;25.58;;;9.48;;
76640;SDS011;65538;50.798;6.064;2022-12-18T05:08:27;22.13;;;8.75;;
76640;SDS011;65538;50.798;6.064;2022-12-18T05:11:06;22.07;;;9.33;;
76640;SDS011;65538;50.798;6.064;2022-12-18T05:13:41;18.67;;;7.75;;
76640;SDS011;65538;50.798;6.064;2022-12-18T05:16:07;19.58;;;8.05;;
76640;SDS011;65538;50.798;6.064;2022-12-18T05:18:38;23.38;;;7.97;;
76640;SDS011;65538;50.798;6.064;2022-12-18T05:21:04;18.75;;;7.05;;
76640;SDS011;65538;50.798;6.064;2022-12-18T05:23:29;20.23;;;6.57;;
76640;SDS011;65538;50.798;6.064;2022-12-18T05:25:59;19.85;;;7.90;;
76640;SDS011;65538;50.798;6.064;2022-12-18T05:28:25;21.13;;;7.85;;
76640;SDS011;65538;50.798;6.064;2022-12-18T05:30:51;18.33;;;8.13;;
76640;SDS011;65538;50.798;6.064;2022-12-18T05:33:17;19.58;;;7.63;;
76640;SDS011;65538;50.798;6.064;2022-12-18T05:35:43;18.95;;;8.48;;
76640;SDS011;65538;50.798;6.064;2022-12-18T05:38:08;21.38;;;8.13;;
76640;SDS011;65538;50.798;6.064;2022-12-18T05:40:33;17.13;;;7.20;;
76640;SDS011;65538;50.798;6.064;2022-12-18T05:42:59;19.73;;;7.77;;
76640;SDS011;65538;50.798;6.064;2022-12-18T05:45:24;18.67;;;8.27;;
76640;SDS011;65538;50.798;6.064;2022-12-18T05:47:49;20.20;;;9.00;;
76640;SDS011;65538;50.798;6.064;2022-12-18T05:50:14;21.47;;;8.67;;
76640;SDS011;65538;50.798;6.064;2022-12-18T05:52:39;20.07;;;8.13;;
76640;SDS011;65538;50.798;6.064;2022-12-18T05:55:05;23.10;;;8.53;;
76640;SDS011;65538;50.798;6.064;2022-12-18T05:57:30;18.70;;;7.75;;
76640;SDS011;65538;50.798;6.064;2022-12-18T05:59:55;19.47;;;7.83;;
76640;SDS011;65538;50.798;6.064;2022-12-18T06:02:20;21.07;;;7.53;;
76640;SDS011;65538;50.798;6.064;2022-12-18T06:04:46;17.60;;;7.77;;
76640;SDS011;65538;50.798;6.064;2022-12-18T06:07:12;21.55;;;7.93;;
76640;SDS011;65538;50.798;6.064;2022-12-18T06:09:37;20.27;;;8.10;;
76640;SDS011;65538;50.798;6.064;2022-12-18T06:12:03;22.57;;;7.73;;
76640;SDS011;65538;50.798;6.064;2022-12-18T06:14:28;19.23;;;8.52;;
76640;SDS011;65538;50.798;6.064;2022-12-18T06:16:53;21.73;;;9.10;;
76640;SDS011;65538;50.798;6.064;2022-12-18T06:19:19;22.27;;;8.10;;
76640;SDS011;65538;50.798;6.064;2022-12-18T06:21:44;18.27;;;6.70;;
76640;SDS011;65538;50.798;6.064;2022-12-18T06:24:09;20.55;;;6.47;;
76640;SDS011;65538;50.798;6.064;2022-12-18T06:26:36;17.23;;;7.47;;
76640;SDS011;65538;50.798;6.064;2022-12-18T06:29:02;13.98;;;6.32;;
76640;SDS011;65538;50.798;6.064;2022-12-18T06:33:57;24.88;;;7.57;;
76640;SDS011;65538;50.798;6.064;2022-12-18T06:36:23;16.87;;;6.27;;
76640;SDS011;65538;50.798;6.064;2022-12-18T06:38:54;19.83;;;6.60;;
76640;SDS011;65538;50.798;6.064;2022-12-18T06:41:22;17.23;;;7.72;;
76640;SDS011;65538;50.798;6.064;2022-12-18T06:43:48;17.27;;;7.68;;
76640;SDS011;65538;50.798;6.064;2022-12-18T06:46:13;16.15;;;6.82;;
76640;SDS011;65538;50.798;6.064;2022-12-18T06:48:42;20.33;;;7.57;;
76640;SDS011;65538;50.798;6.064;2022-12-18T06:51:10;17.65;;;6.82;;
76640;SDS011;65538;50.798;6.064;2022-12-18T06:53:47;15.15;;;6.38;;
76640;SDS011;65538;50.798;6.064;2022-12-18T06:56:15;22.85;;;7.60;;
76640;SDS011;65538;50.798;6.064;2022-12-18T06:58:43;19.50;;;6.65;;
76640;SDS011;65538;50.798;6.064;2022-12-18T07:01:09;13.73;;;5.78;;
76640;SDS011;65538;50.798;6.064;2022-12-18T07:03:35;17.50;;;6.93;;
76640;SDS011;65538;50.798;6.064;2022-12-18T07:06:01;15.98;;;6.72;;
76640;SDS011;65538;50.798;6.064;2022-12-18T07:08:26;16.70;;;7.45;;
76640;SDS011;65538;50.798;6.064;2022-12-18T07:10:51;14.43;;;6.43;;
76640;SDS011;65538;50.798;6.064;2022-12-18T07:13:18;14.13;;;6.25;;
76640;SDS011;65538;50.798;6.064;2022-12-18T07:15:43;16.25;;;7.63;;
76640;SDS011;65538;50.798;6.064;2022-12-18T07:18:09;14.98;;;6.38;;
76640;SDS011;65538;50.798;6.064;2022-12-18T07:20:34;13.15;;;6.72;;
76640;SDS011;65538;50.798;6.064;2022-12-18T07:23:04;14.13;;;5.77;;
76640;SDS011;65538;50.798;6.064;2022-12-18T07:27:55;22.77;;;10.15;;
76640;SDS011;65538;50.798;6.064;2022-12-18T07:30:23;26.35;;;8.27;;
76640;SDS011;65538;50.798;6.064;2022-12-18T07:32:48;14.90;;;6.63;;
76640;SDS011;65538;50.798;6.064;2022-12-18T07:35:13;14.23;;;5.90;;
76640;SDS011;65538;50.798;6.064;2022-12-18T07:37:39;19.07;;;6.90;;
76640;SDS011;65538;50.798;6.064;2022-12-18T07:40:04;17.03;;;6.80;;
76640;SDS011;65538;50.798;6.064;2022-12-18T07:42:32;12.23;;;4.38;;
76640;SDS011;65538;50.798;6.064;2022-12-18T07:45:00;19.20;;;6.70;;
76640;SDS011;65538;50.798;6.064;2022-12-18T07:47:26;20.38;;;7.05;;
76640;SDS011;65538;50.798;6.064;2022-12-18T07:49:51;21.20;;;7.38;;
76640;SDS011;65538;50.798;6.064;2022-12-18T07:52:17;13.27;;;6.37;;
76640;SDS011;65538;50.798;6.064;2022-12-18T07:54:42;22.30;;;7.97;;
76640;SDS011;65538;50.798;6.064;2022-12-18T07:57:07;16.23;;;7.80;;
76640;SDS011;65538;50.798;6.064;2022-12-18T07:59:33;16.57;;;7.20;;
76640;SDS011;65538;50.798;6.064;2022-12-18T08:01:58;18.45;;;7.05;;
76640;SDS011;65538;50.798;6.064;2022-12-18T08:04:23;16.83;;;6.60;;
76640;SDS011;65538;50.798;6.064;2022-12-18T08:06:49;18.75;;;7.60;;
76640;SDS011;65538;50.798;6.064;2022-12-18T08:09:14;15.63;;;6.97;;
76640;SDS011;65538;50.798;6.064;2022-12-18T08:11:39;15.70;;;6.17;;
76640;SDS011;65538;50.798;6.064;2022-12-18T08:14:04;17.40;;;7.30;;
76640;SDS011;65538;50.798;6.064;2022-12-18T08:16:30;17.47;;;6.67;;
76640;SDS011;65538;50.798;6.064;2022-12-18T08:18:56;22.63;;;9.27;;
76640;SDS011;65538;50.798;6.064;2022-12-18T08:21:25;20.52;;;8.50;;
76640;SDS011;65538;50.798;6.064;2022-12-18T08:23:52;19.27;;;7.95;;
76640;SDS011;65538;50.798;6.064;2022-12-18T08:26:18;18.90;;;7.50;;
76640;SDS011;65538;50.798;6.064;2022-12-18T08:28:43;23.33;;;10.63;;
76640;SDS011;65538;50.798;6.064;2022-12-18T08:31:08;21.95;;;9.65;;
76640;SDS011;65538;50.798;6.064;2022-12-18T08:33:34;18.63;;;8.70;;
76640;SDS011;65538;50.798;6.064;2022-12-18T08:36:07;19.20;;;7.38;;
76640;SDS011;65538;50.798;6.064;2022-12-18T08:38:36;20.73;;;7.53;;
76640;SDS011;65538;50.798;6.064;2022-12-18T08:41:02;16.45;;;6.68;;
76640;SDS011;65538;50.798;6.064;2022-12-18T08:43:28;21.48;;;8.32;;
76640;SDS011;65538;50.798;6.064;2022-12-18T08:46:12;20.95;;;7.85;;
76640;SDS011;65538;50.798;6.064;2022-12-18T08:48:40;16.65;;;7.85;;
76640;SDS011;65538;50.798;6.064;2022-12-18T08:51:05;20.77;;;7.73;;
76640;SDS011;65538;50.798;6.064;2022-12-18T08:53:31;24.42;;;10.13;;
76640;SDS011;65538;50.798;6.064;2022-12-18T08:55:56;16.23;;;7.87;;
76640;SDS011;65538;50.798;6.064;2022-12-18T08:58:24;17.95;;;8.68;;
76640;SDS011;65538;50.798;6.064;2022-12-18T09:00:49;22.98;;;9.77;;
76640;SDS011;65538;50.798;6.064;2022-12-18T09:03:18;19.90;;;8.87;;
76640;SDS011;65538;50.798;6.064;2022-12-18T09:05:43;21.33;;;8.07;;
76640;SDS011;65538;50.798;6.064;2022-12-18T09:08:10;20.88;;;9.82;;
76640;SDS011;65538;50.798;6.064;2022-12-18T09:13:27;23.85;;;9.80;;
76640;SDS011;65538;50.798;6.064;2022-12-18T09:15:53;19.20;;;9.07;;
76640;SDS011;65538;50.798;6.064;2022-12-18T09:18:20;21.48;;;8.82;;
76640;SDS011;65538;50.798;6.064;2022-12-18T09:20:45;19.63;;;9.05;;
76640;SDS011;65538;50.798;6.064;2022-12-18T09:23:11;17.30;;;8.32;;
76640;SDS011;65538;50.798;6.064;2022-12-18T09:25:37;21.70;;;10.88;;
76640;SDS011;65538;50.798;6.064;2022-12-18T09:28:04;21.08;;;9.52;;
76640;SDS011;65538;50.798;6.064;2022-12-18T09:30:29;20.23;;;8.65;;
76640;SDS011;65538;50.798;6.064;2022-12-18T09:33:02;20.58;;;9.32;;
76640;SDS011;65538;50.798;6.064;2022-12-18T09:35:27;20.98;;;8.88;;
76640;SDS011;65538;50.798;6.064;2022-12-18T09:37:55;21.42;;;8.50;;
76640;SDS011;65538;50.798;6.064;2022-12-18T09:40:21;20.83;;;9.32;;
76640;SDS011;65538;50.798;6.064;2022-12-18T09:42:52;18.88;;;8.80;;
76640;SDS011;65538;50.798;6.064;2022-12-18T09:45:18;19.30;;;8.80;;
76640;SDS011;65538;50.798;6.064;2022-12-18T09:47:44;21.53;;;8.37;;
76640;SDS011;65538;50.798;6.064;2022-12-18T09:50:22;23.60;;;8.23;;
76640;SDS011;65538;50.798;6.064;2022-12-18T09:55:45;18.88;;;6.88;;
76640;SDS011;65538;50.798;6.064;2022-12-18T10:00:56;19.05;;;7.72;;
76640;SDS011;65538;50.798;6.064;2022-12-18T10:03:21;18.83;;;7.53;;
76640;SDS011;65538;50.798;6.064;2022-12-18T10:06:02;20.60;;;8.38;;
76640;SDS011;65538;50.798;6.064;2022-12-18T10:11:52;21.60;;;8.45;;
76640;SDS011;65538;50.798;6.064;2022-12-18T10:16:54;18.35;;;8.05;;
76640;SDS011;65538;50.798;6.064;2022-12-18T10:24:45;19.27;;;8.90;;
76640;SDS011;65538;50.798;6.064;2022-12-18T10:27:16;18.48;;;8.73;;
76640;SDS011;65538;50.798;6.064;2022-12-18T10:29:42;18.40;;;8.57;;
76640;SDS011;65538;50.798;6.064;2022-12-18T10:32:24;20.23;;;8.55;;
76640;SDS011;65538;50.798;6.064;2022-12-18T10:34:52;22.95;;;9.30;;
76640;SDS011;65538;50.798;6.064;2022-12-18T10:37:19;24.63;;;10.02;;
76640;SDS011;65538;50.798;6.064;2022-12-18T10:39:46;22.55;;;9.88;;
76640;SDS011;65538;50.798;6.064;2022-12-18T10:42:18;21.10;;;8.93;;
76640;SDS011;65538;50.798;6.064;2022-12-18T10:44:44;23.63;;;9.27;;
76640;SDS011;65538;50.798;6.064;2022-12-18T10:47:18;22.70;;;9.20;;
76640;SDS011;65538;50.798;6.064;2022-12-18T10:52:29;18.42;;;8.48;;
76640;SDS011;65538;50.798;6.064;2022-12-18T10:54:55;20.20;;;8.90;;
76640;SDS011;65538;50.798;6.064;2022-12-18T10:59:56;23.85;;;8.95;;
76640;SDS011;65538;50.798;6.064;2022-12-18T11:02:26;25.38;;;10.02;;
76640;SDS011;65538;50.798;6.064;2022-12-18T11:04:52;23.58;;;9.63;;
76640;SDS011;65538;50.798;6.064;2022-12-18T11:07:17;17.60;;;8.13;;
76640;SDS011;65538;50.798;6.064;2022-12-18T11:09:59;20.95;;;9.80;;
76640;SDS011;65538;50.798;6.064;2022-12-18T11:12:25;20.45;;;9.23;;
76640;SDS011;65538;50.798;6.064;2022-12-18T11:14:53;22.15;;;9.43;;
76640;SDS011;65538;50.798;6.064;2022-12-18T11:17:21;24.02;;;9.95;;
76640;SDS011;65538;50.798;6.064;2022-12-18T11:22:33;24.05;;;10.00;;
76640;SDS011;65538;50.798;6.064;2022-12-18T11:25:03;23.77;;;10.20;;
76640;SDS011;65538;50.798;6.064;2022-12-18T11:27:47;21.50;;;9.57;;
76640;SDS011;65538;50.798;6.064;2022-12-18T11:30:24;25.92;;;10.80;;
76640;SDS011;65538;50.798;6.064;2022-12-18T11:32:51;24.30;;;11.02;;
76640;SDS011;65538;50.798;6.064;2022-12-18T11:35:25;24.50;;;10.48;;
76640;SDS011;65538;50.798;6.064;2022-12-18T11:37:54;30.02;;;11.68;;
76640;SDS011;65538;50.798;6.064;2022-12-18T11:40:25;24.58;;;11.45;;
76640;SDS011;65538;50.798;6.064;2022-12-18T11:45:45;27.13;;;12.10;;
76640;SDS011;65538;50.798;6.064;2022-12-18T11:48:20;30.45;;;12.10;;
76640;SDS011;65538;50.798;6.064;2022-12-18T11:50:54;26.40;;;11.38;;
76640;SDS011;65538;50.798;6.064;2022-12-18T11:53:20;24.13;;;11.73;;
76640;SDS011;65538;50.798;6.064;2022-12-18T11:55:56;27.00;;;10.52;;
76640;SDS011;65538;50.798;6.064;2022-12-18T11:58:29;24.90;;;11.77;;
76640;SDS011;65538;50.798;6.064;2022-12-18T12:03:57;25.40;;;11.20;;
76640;SDS011;65538;50.798;6.064;2022-12-18T12:40:19;31.35;;;12.13;;
76640;SDS011;65538;50.798;6.064;2022-12-18T12:42:45;27.00;;;11.68;;
76640;SDS011;65538;50.798;6.064;2022-12-18T12:45:33;25.98;;;11.63;;
76640;SDS011;65538;50.798;6.064;2022-12-18T12:48:00;29.85;;;12.68;;
76640;SDS011;65538;50.798;6.064;2022-12-18T12:50:26;27.20;;;12.32;;
76640;SDS011;65538;50.798;6.064;2022-12-18T12:52:53;28.38;;;12.40;;
76640;SDS011;65538;50.798;6.064;2022-12-18T12:55:21;30.60;;;12.70;;
76640;SDS011;65538;50.798;6.064;2022-12-18T12:58:07;28.23;;;12.20;;
76640;SDS011;65538;50.798;6.064;2022-12-18T13:00:46;32.80;;;14.50;;
76640;SDS011;65538;50.798;6.064;2022-12-18T13:03:27;29.95;;;12.90;;
76640;SDS011;65538;50.798;6.064;2022-12-18T13:05:58;28.25;;;11.90;;
76640;SDS011;65538;50.798;6.064;2022-12-18T13:10:49;32.70;;;13.27;;
76640;SDS011;65538;50.798;6.064;2022-12-18T13:13:15;24.85;;;11.13;;
76640;SDS011;65538;50.798;6.064;2022-12-18T13:20:37;27.87;;;11.17;;
76640;SDS011;65538;50.798;6.064;2022-12-18T13:23:20;24.15;;;9.82;;
76640;SDS011;65538;50.798;6.064;2022-12-18T13:25:54;26.40;;;11.02;;
76640;SDS011;65538;50.798;6.064;2022-12-18T13:31:03;27.08;;;12.52;;
76640;SDS011;65538;50.798;6.064;2022-12-18T13:38:38;29.58;;;13.50;;
76640;SDS011;65538;50.798;6.064;2022-12-18T13:41:20;30.00;;;13.77;;
76640;SDS011;65538;50.798;6.064;2022-12-18T13:43:53;31.95;;;13.75;;
76640;SDS011;65538;50.798;6.064;2022-12-18T13:48:58;31.93;;;13.53;;
76640;SDS011;65538;50.798;6.064;2022-12-18T13:51:24;27.75;;;13.23;;
76640;SDS011;65538;50.798;6.064;2022-12-18T13:53:51;29.10;;;13.88;;
76640;SDS011;65538;50.798;6.064;2022-12-18T13:56:17;30.80;;;14.13;;
76640;SDS011;65538;50.798;6.064;2022-12-18T13:58:43;31.08;;;12.65;;
76640;SDS011;65538;50.798;6.064;2022-12-18T14:01:23;30.90;;;13.00;;
76640;SDS011;65538;50.798;6.064;2022-12-18T14:03:49;30.23;;;12.13;;
76640;SDS011;65538;50.798;6.064;2022-12-18T14:06:15;31.27;;;13.50;;
76640;SDS011;65538;50.798;6.064;2022-12-18T14:08:41;28.90;;;12.93;;
76640;SDS011;65538;50.798;6.064;2022-12-18T14:11:11;30.38;;;13.07;;
76640;SDS011;65538;50.798;6.064;2022-12-18T14:13:42;30.83;;;14.15;;
76640;SDS011;65538;50.798;6.064;2022-12-18T14:16:11;30.10;;;11.83;;
76640;SDS011;65538;50.798;6.064;2022-12-18T14:21:04;26.77;;;12.48;;
76640;SDS011;65538;50.798;6.064;2022-12-18T14:25:58;25.20;;;11.55;;
76640;SDS011;65538;50.798;6.064;2022-12-18T14:28:23;25.63;;;11.00;;
76640;SDS011;65538;50.798;6.064;2022-12-18T14:30:48;26.23;;;10.77;;
76640;SDS011;65538;50.798;6.064;2022-12-18T14:33:15;25.60;;;11.60;;
76640;SDS011;65538;50.798;6.064;2022-12-18T14:35:42;27.17;;;11.93;;
76640;SDS011;65538;50.798;6.064;2022-12-18T14:38:17;27.17;;;11.38;;
76640;SDS011;65538;50.798;6.064;2022-12-18T14:40:43;24.15;;;11.80;;
76640;SDS011;65538;50.798;6.064;2022-12-18T14:43:11;25.40;;;11.77;;
76640;SDS011;65538;50.798;6.064;2022-12-18T14:45:38;31.83;;;13.50;;
76640;SDS011;65538;50.798;6.064;2022-12-18T14:48:07;28.63;;;12.25;;
76640;SDS011;65538;50.798;6.064;2022-12-18T14:50:32;24.52;;;10.55;;
76640;SDS011;65538;50.798;6.064;2022-12-18T14:53:01;26.95;;;12.82;;
76640;SDS011;65538;50.798;6.064;2022-12-18T14:55:26;33.40;;;13.17;;
76640;SDS011;65538;50.798;6.064;2022-12-18T14:57:52;25.93;;;11.57;;
76640;SDS011;65538;50.798;6.064;2022-12-18T15:00:22;26.83;;;12.20;;
76640;SDS011;65538;50.798;6.064;2022-12-18T15:02:48;26.40;;;10.80;;
76640;SDS011;65538;50.798;6.064;2022-12-18T15:07:43;30.90;;;12.87;;
76640;SDS011;65538;50.798;6.064;2022-12-18T15:10:13;26.23;;;11.40;;
76640;SDS011;65538;50.798;6.064;2022-12-18T15:15:04;35.28;;;13.80;;
76640;SDS011;65538;50.798;6.064;2022-12-18T15:17:29;28.40;;;12.18;;
76640;SDS011;65538;50.798;6.064;2022-12-18T15:20:02;30.40;;;13.60;;
76640;SDS011;65538;50.798;6.064;2022-12-18T15:22:33;31.30;;;12.75;;
76640;SDS011;65538;50.798;6.064;2022-12-18T15:24:59;38.88;;;17.10;;
76640;SDS011;65538;50.798;6.064;2022-12-18T15:32:44;35.58;;;14.13;;
76640;SDS011;65538;50.798;6.064;2022-12-18T15:37:41;36.40;;;14.90;;
76640;SDS011;65538;50.798;6.064;2022-12-18T15:40:19;37.30;;;16.02;;
76640;SDS011;65538;50.798;6.064;2022-12-18T15:42:45;37.40;;;16.52;;
76640;SDS011;65538;50.798;6.064;2022-12-18T15:45:29;37.83;;;15.10;;
76640;SDS011;65538;50.798;6.064;2022-12-18T15:47:55;34.92;;;15.63;;
76640;SDS011;65538;50.798;6.064;2022-12-18T15:50:20;33.55;;;14.45;;
76640;SDS011;65538;50.798;6.064;2022-12-18T15:52:46;35.60;;;14.73;;
76640;SDS011;65538;50.798;6.064;2022-12-18T15:55:19;34.15;;;14.10;;
76640;SDS011;65538;50.798;6.064;2022-12-18T15:58:04;34.75;;;15.20;;
76640;SDS011;65538;50.798;6.064;2022-12-18T16:00:30;31.52;;;14.80;;
76640;SDS011;65538;50.798;6.064;2022-12-18T16:02:55;28.88;;;13.50;;
76640;SDS011;65538;50.798;6.064;2022-12-18T16:05:24;39.07;;;16.07;;
76640;SDS011;65538;50.798;6.064;2022-12-18T16:07:49;40.08;;;16.40;;
76640;SDS011;65538;50.798;6.064;2022-12-18T16:10:14;33.90;;;13.77;;
76640;SDS011;65538;50.798;6.064;2022-12-18T16:12:40;39.55;;;17.27;;
76640;SDS011;65538;50.798;6.064;2022-12-18T16:15:05;37.03;;;15.45;;
76640;SDS011;65538;50.798;6.064;2022-12-18T16:17:31;35.15;;;14.30;;
76640;SDS011;65538;50.798;6.064;2022-12-18T16:19:56;36.67;;;16.50;;
76640;SDS011;65538;50.798;6.064;2022-12-18T16:22:23;38.93;;;14.20;;
76640;SDS011;65538;50.798;6.064;2022-12-18T16:24:48;33.75;;;13.90;;
76640;SDS011;65538;50.798;6.064;2022-12-18T16:27:14;30.70;;;15.13;;
76640;SDS011;65538;50.798;6.064;2022-12-18T16:29:41;33.22;;;15.43;;
76640;SDS011;65538;50.798;6.064;2022-12-18T16:32:08;37.35;;;17.90;;
76640;SDS011;65538;50.798;6.064;2022-12-18T16:34:34;41.45;;;19.42;;
76640;SDS011;65538;50.798;6.064;2022-12-18T16:37:00;36.67;;;17.75;;